Time;durP1;ratioP1;P1;durP2;ratioP2;P2;SDS_P1;SDS_P2;PMS_P1;PMS_P2;Temp;Humidity;BMP_temperature;BMP_pressure;BME280_temperature;BME280_humidity;BME280_pressure;Samples;Min_cycle;Max_cycle;Signal;HPM_P1;HPM_P2
2023/06/21 00:01:54;;;;;;;10.73;8.38;;;21.20;99.90;;;;;;5073247;28;20199;-74
2023/06/21 00:04:20;;;;;;;12.65;8.63;;;21.20;99.90;;;;;;5073233;28;20193;-74
2023/06/21 00:06:48;;;;;;;11.75;8.68;;;21.10;99.90;;;;;;5073140;28;20197;-74
2023/06/21 00:09:15;;;;;;;10.90;9.10;;;21.20;99.90;;;;;;5073483;28;20197;-74
2023/06/21 00:11:42;;;;;;;11.75;8.27;;;21.20;99.90;;;;;;5073338;28;20204;-73
2023/06/21 00:14:08;;;;;;;13.63;9.07;;;21.20;99.90;;;;;;5073049;28;20206;-73
2023/06/21 00:16:35;;;;;;;10.15;8.68;;;21.20;99.90;;;;;;5073040;28;20201;-73
2023/06/21 00:19:03;;;;;;;12.38;8.82;;;21.10;99.90;;;;;;5073020;28;20201;-73
2023/06/21 00:21:30;;;;;;;10.90;9.23;;;21.10;99.90;;;;;;5073194;28;20205;-74
2023/06/21 00:23:56;;;;;;;13.18;9.25;;;21.00;99.90;;;;;;5072980;28;20201;-73
2023/06/21 00:26:23;;;;;;;12.35;9.27;;;21.10;99.90;;;;;;5073006;28;20197;-73
2023/06/21 00:28:49;;;;;;;12.40;8.90;;;21.10;99.90;;;;;;5072903;28;20200;-73
2023/06/21 00:31:16;;;;;;;13.52;9.63;;;21.20;99.90;;;;;;5072781;28;20258;-73
2023/06/21 00:33:43;;;;;;;13.98;10.32;;;21.10;99.90;;;;;;5072861;28;20193;-74
2023/06/21 00:36:10;;;;;;;13.70;9.77;;;21.20;99.90;;;;;;5072954;28;20197;-73
2023/06/21 00:38:37;;;;;;;13.05;9.13;;;21.20;99.90;;;;;;5072150;28;20619;-73
2023/06/21 00:41:05;;;;;;;11.15;9.68;;;21.20;99.90;;;;;;5072829;28;20197;-73
2023/06/21 00:43:32;;;;;;;15.18;10.25;;;21.20;99.90;;;;;;5072730;28;20243;-73
2023/06/21 00:45:59;;;;;;;15.15;9.65;;;21.20;99.90;;;;;;5072568;28;20735;-73
2023/06/21 00:48:28;;;;;;;13.73;9.48;;;21.20;99.90;;;;;;5072553;28;20201;-72
2023/06/21 00:50:56;;;;;;;15.70;10.65;;;21.10;99.90;;;;;;5072794;28;20197;-72
2023/06/21 00:53:26;;;;;;;13.02;9.75;;;21.10;99.90;;;;;;5072663;28;20200;-72
2023/06/21 00:55:52;;;;;;;14.05;10.63;;;21.10;99.90;;;;;;5072245;28;20225;-73
2023/06/21 00:58:20;;;;;;;15.85;10.30;;;21.10;99.90;;;;;;5072361;28;20229;-72
2023/06/21 01:00:48;;;;;;;14.35;10.13;;;21.10;99.90;;;;;;5072370;28;20546;-72
2023/06/21 01:03:14;;;;;;;11.07;9.25;;;21.10;99.90;;;;;;5072676;28;20200;-72
2023/06/21 01:05:41;;;;;;;12.38;9.88;;;21.10;99.90;;;;;;5072590;28;20197;-72
2023/06/21 01:08:17;;;;;;;12.27;9.70;;;21.20;99.90;;;;;;5072542;28;20201;-73
2023/06/21 01:10:55;;;;;;;12.05;9.15;;;21.10;99.90;;;;;;5072378;28;20196;-72
2023/06/21 01:13:34;;;;;;;14.57;9.38;;;21.20;99.90;;;;;;5072407;28;20197;-72
2023/06/21 01:16:07;;;;;;;12.18;9.45;;;21.10;99.90;;;;;;5072525;28;20196;-73
2023/06/21 01:18:36;;;;;;;11.25;8.00;;;21.10;99.90;;;;;;5072335;28;20224;-73
2023/06/21 01:21:04;;;;;;;13.95;8.77;;;21.10;99.90;;;;;;5072305;28;20196;-74
2023/06/21 01:24:00;;;;;;;11.50;8.50;;;21.10;99.90;;;;;;5072327;28;20194;-74
2023/06/21 01:26:49;;;;;;;12.95;9.15;;;21.00;99.90;;;;;;5046331;28;20710;-74
2023/06/21 01:29:21;;;;;;;14.63;10.07;;;21.10;99.90;;;;;;5072159;28;20223;-73
2023/06/21 01:31:50;;;;;;;13.90;10.23;;;21.10;99.90;;;;;;5072279;28;20660;-73
2023/06/21 01:34:18;;;;;;;19.75;10.07;;;21.10;99.90;;;;;;5071970;28;20201;-72
2023/06/21 01:36:44;;;;;;;12.02;9.82;;;20.90;99.90;;;;;;5072355;28;20201;-73
2023/06/21 01:39:11;;;;;;;11.48;9.55;;;20.80;99.90;;;;;;5072137;28;20229;-73
2023/06/21 01:41:38;;;;;;;14.13;9.75;;;20.70;99.90;;;;;;5072167;28;20197;-72
2023/06/21 01:44:07;;;;;;;12.20;10.00;;;20.60;99.90;;;;;;5072177;28;20266;-73
2023/06/21 01:46:35;;;;;;;13.75;10.55;;;20.50;99.90;;;;;;5072024;28;20254;-73
2023/06/21 01:49:06;;;;;;;20.05;10.82;;;20.40;99.90;;;;;;5072263;28;20262;-73
2023/06/21 01:51:34;;;;;;;13.52;10.45;;;20.30;99.90;;;;;;5073670;28;20201;-73
2023/06/21 01:54:01;;;;;;;12.13;10.73;;;20.30;99.90;;;;;;5075686;28;20233;-73
2023/06/21 01:56:28;;;;;;;14.30;10.75;;;20.20;99.90;;;;;;5075791;28;20251;-73
2023/06/21 01:58:55;;;;;;;14.93;10.30;;;20.20;99.90;;;;;;5075558;28;20704;-74
2023/06/21 02:01:22;;;;;;;12.88;10.02;;;20.10;99.90;;;;;;5075529;28;20246;-73
2023/06/21 02:03:52;;;;;;;17.25;10.45;;;20.20;99.90;;;;;;5075745;28;20204;-75
2023/06/21 02:06:21;;;;;;;13.73;10.48;;;20.10;99.90;;;;;;5075657;28;20229;-74
2023/06/21 02:08:49;;;;;;;13.63;10.77;;;20.10;99.90;;;;;;5075565;28;20203;-74
2023/06/21 02:11:15;;;;;;;13.50;11.65;;;20.00;99.90;;;;;;5075688;28;20201;-74
2023/06/21 02:13:42;;;;;;;13.20;11.05;;;19.90;99.90;;;;;;5075401;28;20215;-74
2023/06/21 02:16:09;;;;;;;15.80;11.55;;;19.80;99.90;;;;;;5075527;28;20201;-75
2023/06/21 02:18:35;;;;;;;16.90;11.45;;;19.70;99.90;;;;;;5075218;28;20558;-74
2023/06/21 02:21:04;;;;;;;13.13;11.15;;;19.70;99.90;;;;;;5075261;28;20215;-74
2023/06/21 02:23:30;;;;;;;14.98;11.52;;;19.70;99.90;;;;;;5075355;28;20201;-74
2023/06/21 02:25:57;;;;;;;16.83;12.07;;;19.70;99.90;;;;;;5075200;28;20201;-74
2023/06/21 02:28:23;;;;;;;12.45;11.15;;;19.80;99.90;;;;;;5075065;28;20197;-74
2023/06/21 02:30:50;;;;;;;15.98;11.43;;;19.70;99.90;;;;;;5075236;28;20255;-74
2023/06/21 02:33:16;;;;;;;14.65;11.75;;;19.80;99.90;;;;;;5075014;28;20726;-74
2023/06/21 02:35:43;;;;;;;16.20;11.23;;;19.80;99.90;;;;;;5075132;28;20193;-74
2023/06/21 02:38:11;;;;;;;15.23;12.35;;;19.60;99.90;;;;;;5074858;28;20735;-74
2023/06/21 02:40:38;;;;;;;13.40;11.60;;;19.60;99.90;;;;;;5074847;28;20279;-74
2023/06/21 02:43:05;;;;;;;12.77;10.93;;;19.60;99.90;;;;;;5074818;28;20193;-74
2023/06/21 02:45:31;;;;;;;15.93;11.45;;;19.50;99.90;;;;;;5074982;28;20197;-75
2023/06/21 02:47:58;;;;;;;15.02;11.73;;;19.50;99.90;;;;;;5074550;28;20660;-74
2023/06/21 02:50:25;;;;;;;15.30;12.07;;;19.60;99.90;;;;;;5074752;28;20208;-74
2023/06/21 02:52:51;;;;;;;13.98;12.20;;;19.60;99.90;;;;;;5074778;28;20197;-75
2023/06/21 02:55:19;;;;;;;14.13;11.75;;;19.60;99.90;;;;;;5074242;28;20228;-74
2023/06/21 02:57:46;;;;;;;15.45;12.48;;;19.40;99.90;;;;;;5074440;28;20278;-75
2023/06/21 03:00:22;;;;;;;16.25;12.85;;;19.30;99.90;;;;;;5074671;28;20201;-74
2023/06/21 03:02:50;;;;;;;15.57;12.75;;;19.10;99.90;;;;;;5072796;28;20291;-74
2023/06/21 03:05:17;;;;;;;17.77;12.73;;;19.10;99.90;;;;;;5074417;28;20204;-75
2023/06/21 03:07:44;;;;;;;14.88;12.68;;;19.00;99.90;;;;;;5074261;28;20676;-74
2023/06/21 03:10:12;;;;;;;16.70;12.38;;;19.00;99.90;;;;;;5074114;28;20247;-75
2023/06/21 03:12:42;;;;;;;14.40;12.68;;;18.90;99.90;;;;;;5074411;28;20200;-74
2023/06/21 03:15:10;;;;;;;15.82;13.27;;;18.90;99.90;;;;;;5074569;28;20254;-74
2023/06/21 03:17:37;;;;;;;15.45;12.82;;;18.90;99.90;;;;;;5074144;28;20634;-75
2023/06/21 03:20:08;;;;;;;13.95;12.55;;;18.80;99.90;;;;;;5074171;28;20197;-75
2023/06/21 03:22:35;;;;;;;18.10;12.70;;;18.90;99.90;;;;;;5074059;28;20284;-74
2023/06/21 03:25:01;;;;;;;18.52;13.27;;;18.90;99.90;;;;;;5074217;28;20197;-75
2023/06/21 03:27:28;;;;;;;16.90;13.05;;;18.90;99.90;;;;;;5074118;28;20197;-76
2023/06/21 03:29:56;;;;;;;15.75;13.38;;;18.90;99.90;;;;;;5074060;28;20204;-75
2023/06/21 03:32:23;;;;;;;15.52;13.77;;;18.70;99.90;;;;;;5073995;28;20266;-75
2023/06/21 03:34:49;;;;;;;14.60;13.13;;;18.90;99.90;;;;;;5073787;28;20251;-75
2023/06/21 03:37:16;;;;;;;16.15;13.27;;;19.00;99.90;;;;;;5073622;28;20250;-74
2023/06/21 03:39:43;;;;;;;15.95;13.60;;;19.00;99.90;;;;;;5073715;28;20225;-74
2023/06/21 03:42:10;;;;;;;15.43;13.82;;;18.90;99.90;;;;;;5073651;28;20204;-72
2023/06/21 03:44:36;;;;;;;16.10;13.85;;;18.80;99.90;;;;;;5073463;28;20687;-75
2023/06/21 03:47:05;;;;;;;16.13;14.10;;;18.80;99.90;;;;;;5073583;28;20606;-74
2023/06/21 03:49:32;;;;;;;19.55;14.57;;;18.80;99.90;;;;;;5073372;28;20205;-74
2023/06/21 03:51:58;;;;;;;19.13;14.32;;;18.90;99.90;;;;;;5073370;28;20701;-74
2023/06/21 03:54:25;;;;;;;17.08;14.68;;;19.10;99.90;;;;;;5073209;28;20216;-74
2023/06/21 03:56:52;;;;;;;16.23;13.77;;;19.10;99.90;;;;;;5073495;28;20338;-74
2023/06/21 03:59:18;;;;;;;17.15;15.32;;;19.10;99.90;;;;;;5072974;28;20286;-74
2023/06/21 04:01:45;;;;;;;18.88;16.15;;;19.20;99.90;;;;;;5073356;28;20197;-74
2023/06/21 04:04:14;;;;;;;18.02;14.18;;;19.30;99.90;;;;;;5073100;28;20193;-74
2023/06/21 04:06:40;;;;;;;18.17;14.30;;;19.30;99.90;;;;;;5073303;28;20201;-74
2023/06/21 04:09:07;;;;;;;16.95;14.60;;;19.40;99.90;;;;;;5073310;28;20611;-73
2023/06/21 04:11:33;;;;;;;17.65;15.80;;;19.30;99.90;;;;;;5072953;28;20204;-74
2023/06/21 04:14:00;;;;;;;21.55;15.55;;;19.30;99.90;;;;;;5072404;28;20255;-74
2023/06/21 04:16:27;;;;;;;17.88;14.70;;;19.40;99.90;;;;;;5072881;28;20525;-74
2023/06/21 04:18:55;;;;;;;21.70;16.00;;;19.40;99.90;;;;;;5072700;28;20221;-74
2023/06/21 04:21:23;;;;;;;15.82;13.57;;;19.50;99.90;;;;;;5072792;28;20282;-74
2023/06/21 04:23:49;;;;;;;18.30;14.82;;;19.50;99.90;;;;;;5073081;28;20237;-74
2023/06/21 04:26:16;;;;;;;19.67;14.93;;;19.70;99.90;;;;;;5072695;28;20645;-74
2023/06/21 04:28:42;;;;;;;16.80;13.35;;;19.90;99.90;;;;;;5072957;28;20209;-74
2023/06/21 04:31:09;;;;;;;15.95;13.57;;;20.10;99.90;;;;;;5072676;28;20197;-74
2023/06/21 04:33:36;;;;;;;19.48;14.13;;;20.30;99.90;;;;;;5072726;28;20201;-74
2023/06/21 04:36:02;;;;;;;20.23;14.02;;;20.40;99.90;;;;;;5072918;28;20193;-74
2023/06/21 04:38:32;;;;;;;15.10;13.23;;;20.40;99.90;;;;;;5072613;28;20700;-74
2023/06/21 04:40:58;;;;;;;17.65;13.68;;;20.50;99.90;;;;;;5072449;28;20201;-75
2023/06/21 04:43:25;;;;;;;24.02;13.27;;;20.60;99.90;;;;;;5072609;28;20345;-74
2023/06/21 04:45:52;;;;;;;17.58;14.25;;;20.60;99.90;;;;;;5072545;28;20197;-74
2023/06/21 04:48:19;;;;;;;19.25;13.93;;;20.70;99.90;;;;;;5072637;28;20201;-75
2023/06/21 04:50:45;;;;;;;15.68;14.02;;;20.70;99.90;;;;;;5072568;28;20197;-75
2023/06/21 04:53:12;;;;;;;15.23;12.85;;;20.70;99.90;;;;;;5072661;28;20203;-75
2023/06/21 04:55:42;;;;;;;19.05;14.05;;;20.70;99.90;;;;;;5072397;28;20282;-74
2023/06/21 04:58:09;;;;;;;14.93;13.18;;;20.70;99.90;;;;;;5072440;28;20200;-75
2023/06/21 05:00:36;;;;;;;17.05;12.82;;;20.90;99.90;;;;;;5072319;28;20359;-75
2023/06/21 05:03:03;;;;;;;15.98;13.65;;;21.00;99.90;;;;;;5072674;28;20207;-74
2023/06/21 05:05:29;;;;;;;14.63;13.07;;;21.00;99.90;;;;;;5072495;28;20200;-74
2023/06/21 05:07:56;;;;;;;17.02;13.48;;;21.10;99.90;;;;;;5072453;28;20193;-75
2023/06/21 05:10:23;;;;;;;17.10;13.30;;;21.00;99.90;;;;;;5072249;28;20645;-74
2023/06/21 05:12:51;;;;;;;16.77;14.07;;;21.00;99.90;;;;;;5072298;28;20653;-74
2023/06/21 05:15:17;;;;;;;17.65;14.30;;;20.90;99.90;;;;;;5072553;28;20201;-75
2023/06/21 05:17:45;;;;;;;15.95;14.30;;;20.80;99.90;;;;;;5072440;28;20200;-75
2023/06/21 05:20:12;;;;;;;17.38;15.48;;;20.70;99.90;;;;;;5072233;28;20239;-74
2023/06/21 05:22:38;;;;;;;17.55;15.00;;;20.70;99.90;;;;;;5072309;28;20193;-74
2023/06/21 05:25:05;;;;;;;17.42;14.60;;;20.70;99.90;;;;;;5073432;28;20196;-73
2023/06/21 05:27:32;;;;;;;17.45;15.27;;;20.60;99.90;;;;;;5076023;28;20541;-73
2023/06/21 05:30:00;;;;;;;16.60;14.85;;;20.60;99.90;;;;;;5076170;28;20254;-72
2023/06/21 05:32:27;;;;;;;15.85;14.18;;;20.40;99.90;;;;;;5076120;28;20201;-72
2023/06/21 05:34:54;;;;;;;15.68;14.18;;;20.40;99.90;;;;;;5076042;28;20197;-72
2023/06/21 05:37:20;;;;;;;15.73;14.13;;;20.40;99.90;;;;;;5075873;28;20201;-73
2023/06/21 05:39:47;;;;;;;17.00;14.30;;;20.40;99.90;;;;;;5075845;28;20753;-73
2023/06/21 05:42:14;;;;;;;16.02;14.15;;;20.30;99.90;;;;;;5075707;28;20197;-73
2023/06/21 05:44:40;;;;;;;14.73;13.05;;;20.40;99.90;;;;;;5076058;28;20201;-73
2023/06/21 05:47:08;;;;;;;15.50;12.57;;;20.40;99.90;;;;;;5075676;28;20663;-73
2023/06/21 05:49:35;;;;;;;13.43;12.10;;;20.40;99.90;;;;;;5075690;28;20231;-72
2023/06/21 05:52:02;;;;;;;13.93;12.43;;;20.40;99.90;;;;;;5075508;28;20370;-72
2023/06/21 05:54:28;;;;;;;13.20;11.90;;;20.50;99.90;;;;;;5075536;28;20282;-72
2023/06/21 05:56:55;;;;;;;12.80;11.55;;;20.60;99.90;;;;;;5075750;28;20196;-72
2023/06/21 05:59:21;;;;;;;12.82;11.52;;;20.70;99.90;;;;;;5075871;28;20216;-72
2023/06/21 06:01:48;;;;;;;10.95;9.85;;;20.90;99.90;;;;;;5075734;28;20822;-73
2023/06/21 06:04:17;;;;;;;13.20;10.90;;;21.20;99.90;;;;;;5075667;28;20197;-72
2023/06/21 06:06:44;;;;;;;11.48;10.27;;;21.40;99.90;;;;;;5075601;28;20223;-72
2023/06/21 06:09:11;;;;;;;11.65;10.13;;;21.70;99.90;;;;;;5075643;28;20232;-72
2023/06/21 06:11:38;;;;;;;14.27;9.38;;;21.70;99.90;;;;;;5075695;28;20201;-73
2023/06/21 06:14:04;;;;;;;11.10;9.57;;;21.60;99.90;;;;;;5075674;28;20292;-72
2023/06/21 06:16:31;;;;;;;10.75;9.40;;;21.50;99.90;;;;;;5075525;28;20197;-73
2023/06/21 06:18:58;;;;;;;10.10;8.98;;;21.60;99.90;;;;;;5075416;28;20213;-72
2023/06/21 06:21:26;;;;;;;12.35;9.55;;;21.80;99.90;;;;;;5075183;28;20197;-73
2023/06/21 06:23:53;;;;;;;9.57;8.60;;;22.00;99.90;;;;;;5075141;28;20689;-73
2023/06/21 06:26:22;;;;;;;10.65;8.65;;;21.90;99.90;;;;;;5075323;28;20205;-73
2023/06/21 06:28:49;;;;;;;9.60;8.30;;;22.10;99.90;;;;;;5075366;28;20292;-77
2023/06/21 06:31:18;;;;;;;10.52;8.63;;;22.20;99.90;;;;;;5075171;28;20665;-77
2023/06/21 06:33:45;;;;;;;11.25;7.40;;;22.40;99.90;;;;;;5075268;28;20242;-79
2023/06/21 06:36:12;;;;;;;7.40;6.70;;;22.50;99.90;;;;;;5074598;28;20595;-78
2023/06/21 06:38:40;;;;;;;7.50;6.80;;;22.70;99.90;;;;;;5074915;28;20208;-76
2023/06/21 06:41:06;;;;;;;8.07;7.22;;;22.80;99.90;;;;;;5075183;28;20227;-78
2023/06/21 06:43:34;;;;;;;8.30;6.82;;;22.90;99.90;;;;;;5075049;28;20197;-78
2023/06/21 06:46:00;;;;;;;6.90;6.05;;;23.10;99.90;;;;;;5075017;28;20197;-79
2023/06/21 06:48:27;;;;;;;8.43;6.20;;;23.20;99.90;;;;;;5075033;28;20201;-78
2023/06/21 06:50:54;;;;;;;6.72;6.13;;;23.40;99.90;;;;;;5074522;28;20196;-78
2023/06/21 06:53:20;;;;;;;8.40;6.72;;;23.40;99.90;;;;;;5074740;28;20197;-76
2023/06/21 06:55:49;;;;;;;7.45;6.75;;;23.30;99.90;;;;;;5074474;28;20279;-74
2023/06/21 06:58:15;;;;;;;8.60;6.50;;;23.40;99.90;;;;;;5074327;28;20672;-75
2023/06/21 07:00:42;;;;;;;8.68;6.15;;;23.40;99.90;;;;;;5074606;28;20221;-76
2023/06/21 07:03:08;;;;;;;7.00;6.28;;;23.60;99.90;;;;;;5074825;28;20204;-79
2023/06/21 07:05:36;;;;;;;7.40;6.45;;;23.60;99.90;;;;;;5080500;28;20197;-78
2023/06/21 07:08:03;;;;;;;7.40;6.13;;;23.80;99.90;;;;;;5075324;28;20208;-79
2023/06/21 07:10:30;;;;;;;8.40;6.88;;;23.80;99.90;;;;;;5074920;28;20207;-78
2023/06/21 07:13:02;;;;;;;7.35;6.13;;;23.80;99.90;;;;;;5074469;28;20193;-80
2023/06/21 07:15:28;;;;;;;10.18;6.57;;;23.80;99.90;;;;;;5074040;28;20229;-78
2023/06/21 07:17:56;;;;;;;11.23;6.40;;;23.60;99.90;;;;;;5074161;28;20197;-78
2023/06/21 07:20:23;;;;;;;8.43;6.45;;;23.60;99.90;;;;;;5073744;28;20237;-79
2023/06/21 07:22:49;;;;;;;6.32;5.43;;;23.90;99.90;;;;;;5074081;28;20200;-79
2023/06/21 07:25:16;;;;;;;9.30;5.18;;;24.00;99.90;;;;;;5073953;28;20193;-80
2023/06/21 07:27:43;;;;;;;7.75;5.38;;;23.90;99.90;;;;;;5074026;28;20197;-80
2023/06/21 07:30:12;;;;;;;7.05;5.10;;;23.90;99.90;;;;;;5073877;28;20677;-80
2023/06/21 07:32:38;;;;;;;5.97;4.97;;;23.80;99.90;;;;;;5074023;28;20253;-83
2023/06/21 07:35:07;;;;;;;8.60;5.38;;;23.90;99.90;;;;;;5073817;28;20224;-77
2023/06/21 07:37:34;;;;;;;6.13;5.05;;;23.90;99.90;;;;;;5073965;28;20288;-79
2023/06/21 07:40:01;;;;;;;6.20;5.10;;;24.30;99.90;;;;;;5073890;28;20217;-79
2023/06/21 07:42:27;;;;;;;6.45;5.05;;;24.20;99.90;;;;;;5073628;28;20564;-80
2023/06/21 07:44:55;;;;;;;8.00;4.78;;;24.30;99.90;;;;;;5073579;28;20205;-78
2023/06/21 07:47:23;;;;;;;6.38;4.22;;;24.30;99.90;;;;;;5073611;28;20287;-81
2023/06/21 07:49:50;;;;;;;5.75;4.70;;;23.90;99.90;;;;;;5072835;28;20208;-79
2023/06/21 07:52:17;;;;;;;5.85;4.82;;;24.30;99.90;;;;;;5066099;28;20197;-76
2023/06/21 07:54:47;;;;;;;7.82;4.70;;;24.20;99.90;;;;;;5052712;28;20236;-80
2023/06/21 07:57:14;;;;;;;6.80;4.45;;;24.30;99.90;;;;;;5063504;28;20333;-80
2023/06/21 07:59:41;;;;;;;5.40;4.30;;;24.30;99.90;;;;;;5093548;28;20618;-82
2023/06/21 08:02:08;;;;;;;8.57;4.40;;;24.50;99.90;;;;;;5093768;28;20253;-79
2023/06/21 08:04:36;;;;;;;6.32;4.05;;;24.70;99.90;;;;;;5091260;28;20196;-75
2023/06/21 08:07:02;;;;;;;7.45;3.92;;;24.50;99.90;;;;;;5091228;28;20253;-75
2023/06/21 08:09:29;;;;;;;9.10;3.80;;;24.50;99.90;;;;;;5075895;28;20208;-76
2023/06/21 08:11:56;;;;;;;6.18;3.67;;;24.70;99.90;;;;;;5070101;28;20212;-78
2023/06/21 08:14:22;;;;;;;5.28;3.60;;;24.50;99.90;;;;;;5070724;28;20201;-77
2023/06/21 08:16:49;;;;;;;6.75;3.30;;;24.50;99.90;;;;;;5070251;28;20196;-77
2023/06/21 08:19:15;;;;;;;4.50;3.47;;;24.60;99.90;;;;;;5070479;28;20652;-77
2023/06/21 08:21:44;;;;;;;5.47;3.00;;;24.70;99.90;;;;;;5070412;28;20282;-77
2023/06/21 08:24:11;;;;;;;3.72;2.97;;;24.50;99.90;;;;;;5070296;28;20238;-77
2023/06/21 08:26:37;;;;;;;8.70;2.90;;;24.50;99.90;;;;;;5069811;28;20201;-77
2023/06/21 08:29:04;;;;;;;4.38;3.17;;;24.30;99.90;;;;;;5069791;28;20597;-77
2023/06/21 08:31:31;;;;;;;4.38;2.50;;;24.10;99.90;;;;;;5070642;28;20254;-77
2023/06/21 08:33:58;;;;;;;4.50;2.70;;;24.00;99.90;;;;;;5071357;28;20205;-77
2023/06/21 08:36:26;;;;;;;4.78;2.70;;;24.30;99.90;;;;;;5072083;28;20227;-77
2023/06/21 08:38:54;;;;;;;4.03;2.67;;;24.40;99.90;;;;;;5071924;28;20648;-77
2023/06/21 08:41:21;;;;;;;2.65;2.30;;;24.70;99.90;;;;;;5072706;28;20225;-74
2023/06/21 08:43:47;;;;;;;6.15;2.40;;;24.50;99.90;;;;;;5072837;28;20223;-72
2023/06/21 08:46:15;;;;;;;9.73;3.00;;;24.70;99.90;;;;;;5072806;28;20262;-72
2023/06/21 08:48:45;;;;;;;5.10;2.88;;;25.10;99.90;;;;;;5072665;28;20203;-72
2023/06/21 08:51:12;;;;;;;4.38;2.63;;;25.30;99.90;;;;;;5073604;28;20193;-71
2023/06/21 08:53:44;;;;;;;5.55;2.78;;;25.50;99.90;;;;;;5072242;28;20200;-71
2023/06/21 08:56:18;;;;;;;3.92;2.70;;;26.00;99.90;;;;;;5072533;28;20251;-72
2023/06/21 08:58:50;;;;;;;4.35;2.92;;;26.50;99.90;;;;;;5072668;28;20198;-71
2023/06/21 09:01:19;;;;;;;3.70;3.00;;;25.80;99.90;;;;;;5072224;28;20221;-72
2023/06/21 09:03:53;;;;;;;4.35;2.75;;;25.70;99.90;;;;;;5072534;28;20196;-71
2023/06/21 09:06:22;;;;;;;9.73;3.03;;;25.70;99.90;;;;;;5072451;28;20694;-71
2023/06/21 09:08:50;;;;;;;5.70;3.03;;;26.20;99.90;;;;;;5072636;28;20197;-72
2023/06/21 09:11:19;;;;;;;7.47;3.60;;;26.20;99.90;;;;;;5072583;28;20242;-72
2023/06/21 09:13:46;;;;;;;6.88;3.47;;;26.10;99.90;;;;;;5072535;28;20197;-72
2023/06/21 09:16:13;;;;;;;6.25;3.42;;;25.70;99.90;;;;;;5072530;28;20255;-72
2023/06/21 09:18:40;;;;;;;5.10;2.75;;;26.40;99.90;;;;;;5072350;28;20325;-72
2023/06/21 09:21:09;;;;;;;6.40;2.95;;;26.50;99.90;;;;;;5072250;28;20663;-72
2023/06/21 09:23:36;;;;;;;7.95;2.97;;;26.40;99.90;;;;;;5072508;28;20201;-72
2023/06/21 09:26:03;;;;;;;5.95;2.97;;;26.20;99.90;;;;;;5072440;28;20200;-72
2023/06/21 09:28:31;;;;;;;5.72;3.20;;;26.70;99.90;;;;;;5072333;28;20201;-72
2023/06/21 09:30:59;;;;;;;4.97;2.90;;;26.90;99.90;;;;;;5072516;28;20246;-73
2023/06/21 09:33:26;;;;;;;5.95;3.03;;;26.80;99.90;;;;;;5072427;28;20250;-72
2023/06/21 09:35:53;;;;;;;4.45;3.20;;;26.10;99.90;;;;;;5072605;28;20201;-73
2023/06/21 09:38:23;;;;;;;3.42;2.88;;;26.20;99.90;;;;;;5072612;28;20197;-73
2023/06/21 09:40:50;;;;;;;7.05;3.28;;;26.70;99.90;;;;;;5072224;28;20700;-72
2023/06/21 09:43:19;;;;;;;10.80;3.20;;;26.80;99.90;;;;;;5072408;28;20541;-72
2023/06/21 09:45:58;;;;;;;4.97;3.45;;;27.10;99.90;;;;;;5072130;28;20209;-72
2023/06/21 09:48:25;;;;;;;4.00;3.55;;;27.10;99.90;;;;;;5072512;28;20205;-72
2023/06/21 09:50:54;;;;;;;5.20;3.20;;;26.90;99.90;;;;;;5072388;28;20244;-72
2023/06/21 09:53:23;;;;;;;6.72;3.30;;;26.70;99.90;;;;;;5072015;28;20711;-71
2023/06/21 09:55:49;;;;;;;3.47;3.17;;;26.20;99.90;;;;;;5072051;28;20233;-72
2023/06/21 09:58:16;;;;;;;6.10;3.47;;;26.30;99.90;;;;;;5072157;28;20255;-72
2023/06/21 10:00:43;;;;;;;4.30;3.38;;;26.40;99.90;;;;;;5071915;28;20576;-72
2023/06/21 10:03:11;;;;;;;6.18;3.38;;;26.00;99.90;;;;;;5072361;28;20205;-72
2023/06/21 10:05:53;;;;;;;4.28;3.30;;;26.30;99.90;;;;;;5072176;28;20292;-72
2023/06/21 10:08:24;;;;;;;4.03;3.40;;;26.10;99.90;;;;;;5072101;28;20197;-72
2023/06/21 10:10:51;;;;;;;8.63;3.70;;;26.20;99.90;;;;;;5072076;28;20207;-72
2023/06/21 10:13:17;;;;;;;5.50;3.20;;;26.10;99.90;;;;;;5075020;28;20201;-72
2023/06/21 10:15:46;;;;;;;5.70;3.85;;;25.50;99.90;;;;;;5075800;28;20201;-72
2023/06/21 10:18:16;;;;;;;4.72;3.25;;;25.40;99.90;;;;;;5075711;28;20204;-72
2023/06/21 10:20:43;;;;;;;5.35;3.72;;;25.40;99.90;;;;;;5075789;28;20213;-72
2023/06/21 10:23:15;;;;;;;5.85;3.17;;;25.30;99.90;;;;;;5075566;28;20205;-72
2023/06/21 10:25:45;;;;;;;3.92;3.55;;;25.00;99.90;;;;;;5075669;28;20710;-72
2023/06/21 10:28:15;;;;;;;4.88;3.85;;;24.90;99.90;;;;;;5075372;28;20204;-72
2023/06/21 10:30:44;;;;;;;4.95;3.63;;;24.60;99.90;;;;;;5075315;28;20197;-72
2023/06/21 10:33:11;;;;;;;6.60;3.80;;;24.50;99.90;;;;;;5075500;28;20611;-72
2023/06/21 10:35:42;;;;;;;5.22;3.28;;;24.30;99.90;;;;;;5075290;28;20660;-72
2023/06/21 10:38:11;;;;;;;4.40;3.33;;;24.10;99.90;;;;;;5075424;28;20239;-72
2023/06/21 10:40:39;;;;;;;4.68;3.38;;;24.00;99.90;;;;;;5075020;28;20731;-73
2023/06/21 10:43:07;;;;;;;4.78;3.33;;;23.90;99.90;;;;;;5075021;28;20707;-72
2023/06/21 10:45:34;;;;;;;3.60;3.15;;;23.80;99.90;;;;;;5075043;28;20296;-72
2023/06/21 10:48:01;;;;;;;4.63;3.40;;;23.80;99.90;;;;;;5074732;28;20208;-72
2023/06/21 10:50:28;;;;;;;6.18;3.80;;;23.80;99.90;;;;;;5074645;28;20205;-72
2023/06/21 10:53:01;;;;;;;4.03;3.13;;;23.80;99.90;;;;;;5074866;28;20255;-72
2023/06/21 10:55:28;;;;;;;10.43;3.67;;;23.60;99.90;;;;;;5074576;28;20573;-71
2023/06/21 10:57:56;;;;;;;5.35;3.60;;;23.40;99.90;;;;;;5074458;28;20652;-72
2023/06/21 11:00:24;;;;;;;5.25;3.67;;;23.30;99.90;;;;;;5074621;28;20217;-72
2023/06/21 11:02:51;;;;;;;5.40;3.60;;;23.30;99.90;;;;;;5074493;28;20250;-72
2023/06/21 11:05:19;;;;;;;4.05;3.63;;;23.30;99.90;;;;;;5074710;28;20200;-72
2023/06/21 11:07:51;;;;;;;9.02;3.70;;;23.30;99.90;;;;;;5074627;28;20200;-72
2023/06/21 11:10:21;;;;;;;6.80;3.30;;;23.30;99.90;;;;;;5074656;28;20205;-73
2023/06/21 11:12:48;;;;;;;9.15;4.97;;;21.80;99.90;;;;;;5074581;28;20205;-73
2023/06/21 11:15:21;;;;;;;10.35;4.60;;;20.80;99.90;;;;;;5074322;28;20201;-75
2023/06/21 11:17:56;;;;;;;6.47;4.32;;;19.30;99.90;;;;;;5074237;28;20549;-75
2023/06/21 11:20:24;;;;;;;8.52;5.32;;;19.00;99.90;;;;;;5074315;28;20200;-75
2023/06/21 11:22:58;;;;;;;10.45;5.47;;;19.00;99.90;;;;;;5074110;28;20238;-79
2023/06/21 11:25:26;;;;;;;6.47;5.03;;;18.70;99.90;;;;;;5074385;28;20197;-78
2023/06/21 11:28:26;;;;;;;8.30;5.45;;;18.50;99.90;;;;;;5074168;28;20254;-78
2023/06/21 11:31:07;;;;;;;9.25;5.72;;;18.60;99.90;;;;;;5074368;28;20201;-78
2023/06/21 11:33:47;;;;;;;6.55;4.93;;;18.70;99.90;;;;;;5074487;28;20193;-77
2023/06/21 11:36:13;;;;;;;8.38;6.13;;;18.80;99.90;;;;;;5074242;28;20197;-76
2023/06/21 11:38:49;;;;;;;9.38;6.43;;;18.70;99.90;;;;;;5074210;28;20200;-78
2023/06/21 11:41:53;;;;;;;10.98;7.10;;;18.80;99.90;;;;;;5073901;28;20282;-76
2023/06/21 11:44:21;;;;;;;12.52;7.20;;;18.90;99.90;;;;;;5073610;28;20246;-78
2023/06/21 11:46:49;;;;;;;16.27;7.35;;;18.90;99.90;;;;;;5073770;28;20247;-77
2023/06/21 11:49:16;;;;;;;10.63;7.43;;;19.00;99.90;;;;;;5073875;28;20205;-77
2023/06/21 11:51:50;;;;;;;9.50;7.43;;;19.00;99.90;;;;;;5073856;28;20255;-76
2023/06/21 11:54:29;;;;;;;11.55;7.60;;;19.00;99.90;;;;;;5073548;28;20234;-77
2023/06/21 11:56:57;;;;;;;9.77;8.18;;;18.80;99.90;;;;;;5073529;28;20197;-75
2023/06/21 11:59:24;;;;;;;11.90;8.30;;;18.60;99.90;;;;;;5073432;28;20201;-74
2023/06/21 12:01:51;;;;;;;11.98;8.93;;;18.60;99.90;;;;;;5073628;28;20224;-75
2023/06/21 12:04:25;;;;;;;17.77;10.63;;;18.60;99.90;;;;;;5073642;28;20251;-74
2023/06/21 12:06:51;;;;;;;15.55;10.23;;;18.80;99.90;;;;;;5073602;28;20197;-75
2023/06/21 12:09:18;;;;;;;20.95;10.02;;;18.80;99.90;;;;;;5073487;28;20201;-74
2023/06/21 12:11:48;;;;;;;18.42;10.88;;;19.00;99.90;;;;;;5073268;28;20726;-74
2023/06/21 12:14:16;;;;;;;14.07;10.98;;;18.90;99.90;;;;;;5073396;28;20196;-74
2023/06/21 12:16:43;;;;;;;16.90;9.93;;;19.10;99.90;;;;;;5073404;28;20811;-73
2023/06/21 12:19:10;;;;;;;15.93;8.95;;;18.80;99.90;;;;;;5073248;28;20283;-74
2023/06/21 12:21:39;;;;;;;11.75;9.82;;;18.90;99.90;;;;;;5073103;28;20231;-75
2023/06/21 12:24:06;;;;;;;11.13;8.90;;;19.00;99.90;;;;;;5073020;28;20204;-74
2023/06/21 12:26:32;;;;;;;11.85;9.25;;;18.90;99.90;;;;;;5073026;28;20204;-75
2023/06/21 12:28:59;;;;;;;12.32;8.85;;;19.00;99.90;;;;;;5072933;28;20674;-75
2023/06/21 12:31:30;;;;;;;11.85;8.88;;;19.00;99.90;;;;;;5073117;28;20223;-76
2023/06/21 12:33:57;;;;;;;11.82;9.05;;;19.10;99.90;;;;;;5072984;28;20239;-76
2023/06/21 12:36:25;;;;;;;10.73;8.95;;;19.40;99.90;;;;;;5072540;28;20561;-76
2023/06/21 12:38:56;;;;;;;10.43;7.95;;;19.50;99.90;;;;;;5072935;28;20204;-76
2023/06/21 12:41:24;;;;;;;9.90;7.70;;;19.60;99.90;;;;;;5072729;28;20681;-76